createdAt,value
2023-05-01T00:00:07.697Z,11.22
2023-05-01T00:02:55.992Z,11.16
2023-05-01T00:05:24.319Z,11.14
2023-05-01T00:07:52.492Z,11.12
2023-05-01T00:10:21.074Z,11.10
2023-05-01T00:12:49.250Z,11.06
2023-05-01T00:15:17.725Z,11.02
2023-05-01T00:17:46.064Z,10.97
2023-05-01T00:20:17.581Z,10.92
2023-05-01T00:22:46.055Z,10.86
2023-05-01T00:25:14.408Z,10.79
2023-05-01T00:27:42.716Z,10.74
2023-05-01T00:30:11.391Z,10.70
2023-05-01T00:33:35.351Z,10.68
2023-05-01T00:36:03.927Z,10.66
2023-05-01T00:38:32.416Z,10.62
2023-05-01T00:41:01.206Z,10.59
2023-05-01T00:43:29.413Z,10.58
2023-05-01T00:45:57.902Z,10.58
2023-05-01T00:48:26.541Z,10.59
2023-05-01T00:50:54.923Z,10.59
2023-05-01T00:53:26.482Z,10.58
2023-05-01T00:56:17.482Z,10.55
2023-05-01T00:58:50.168Z,10.53
2023-05-01T01:01:19.316Z,10.48
2023-05-01T01:03:49.163Z,10.45
2023-05-01T01:06:26.315Z,10.40
2023-05-01T01:09:12.350Z,10.34
2023-05-01T01:12:01.702Z,10.30
2023-05-01T01:14:40.684Z,10.28
2023-05-01T01:17:40.205Z,10.27
2023-05-01T01:20:38.931Z,10.25
2023-05-01T01:23:23.186Z,10.24
2023-05-01T01:26:18.686Z,10.20
2023-05-01T01:29:05.193Z,10.16
2023-05-01T01:32:02.566Z,10.13
2023-05-01T01:34:36.672Z,10.09
2023-05-01T01:37:24.615Z,10.03
2023-05-01T01:40:12.452Z,9.98
2023-05-01T01:42:50.130Z,9.89
2023-05-01T01:45:24.880Z,9.82
2023-05-01T01:47:53.941Z,9.77
2023-05-01T01:50:23.155Z,9.75
2023-05-01T01:52:51.332Z,9.72
2023-05-01T01:55:22.676Z,9.71
2023-05-01T01:57:51.554Z,9.71
2023-05-01T02:00:20.726Z,9.73
2023-05-01T02:02:51.149Z,9.72
2023-05-01T02:05:48.038Z,9.72
2023-05-01T02:08:16.497Z,9.69
2023-05-01T02:10:44.455Z,9.67
2023-05-01T02:13:12.547Z,9.65
2023-05-01T02:15:41.322Z,9.61
2023-05-01T02:18:09.491Z,9.58
2023-05-01T02:20:37.994Z,9.55
2023-05-01T02:23:06.166Z,9.52
2023-05-01T02:25:35.159Z,9.48
2023-05-01T02:28:07.119Z,9.46
2023-05-01T02:30:35.600Z,9.46
2023-05-01T02:33:04.542Z,9.46
2023-05-01T02:35:50.601Z,9.47
2023-05-01T02:38:21.169Z,9.46
2023-05-01T02:40:54.612Z,9.47
2023-05-01T02:43:23.608Z,9.45
2023-05-01T02:45:52.453Z,9.44
2023-05-01T02:48:24.528Z,9.39
2023-05-01T02:50:52.724Z,9.36
2023-05-01T02:53:20.905Z,9.33
2023-05-01T02:55:55.965Z,9.30
2023-05-01T02:58:24.847Z,9.27
2023-05-01T03:00:53.674Z,9.23
2023-05-01T03:03:21.960Z,9.20
2023-05-01T03:05:49.968Z,9.17
2023-05-01T03:08:18.237Z,9.15
2023-05-01T03:10:46.352Z,9.10
2023-05-01T03:13:14.382Z,9.09
2023-05-01T03:15:44.800Z,9.08
2023-05-01T03:18:12.967Z,9.10
2023-05-01T03:20:41.817Z,9.12
2023-05-01T03:23:10.240Z,9.14
2023-05-01T03:25:38.615Z,9.19
2023-05-01T03:28:08.533Z,9.33
2023-05-01T03:30:36.647Z,9.53
2023-05-01T03:33:04.853Z,9.74
2023-05-01T03:35:33.229Z,9.93
2023-05-01T03:38:02.962Z,10.09
2023-05-01T03:40:51.211Z,10.26
2023-05-01T03:43:42.934Z,10.43
2023-05-01T03:46:19.872Z,10.62
2023-05-01T03:48:48.394Z,10.90
2023-05-01T03:51:17.394Z,11.11
2023-05-01T03:53:46.710Z,11.12
2023-05-01T03:56:15.059Z,11.23
2023-05-01T03:58:44.053Z,11.53
2023-05-01T04:01:12.947Z,11.89
2023-05-01T04:03:44.852Z,12.31
2023-05-01T04:06:14.334Z,12.73
2023-05-01T04:08:43.600Z,13.13
2023-05-01T04:11:13.113Z,13.50
2023-05-01T04:13:41.617Z,13.84
2023-05-01T04:16:10.477Z,14.15
2023-05-01T04:18:38.861Z,14.47
2023-05-01T04:21:07.238Z,14.78
2023-05-01T04:23:35.628Z,15.07
2023-05-01T04:26:05.014Z,15.30
2023-05-01T04:29:25.208Z,15.53
2023-05-01T04:31:53.626Z,15.83
2023-05-01T04:34:22.275Z,16.10
2023-05-01T04:36:52.387Z,16.30
2023-05-01T04:39:20.662Z,16.57
2023-05-01T04:42:15.349Z,16.82
2023-05-01T04:44:43.525Z,17.18
2023-05-01T04:47:12.073Z,17.47
2023-05-01T04:49:40.445Z,17.80
2023-05-01T04:52:08.708Z,18.12
2023-05-01T04:54:52.914Z,18.40
2023-05-01T04:57:22.101Z,18.72
2023-05-01T04:59:51.618Z,19.00
2023-05-01T05:02:19.861Z,19.30
2023-05-01T05:04:48.073Z,19.53
2023-05-01T05:07:16.955Z,19.74
2023-05-01T05:10:14.409Z,20.07
2023-05-01T05:12:46.579Z,20.38
2023-05-01T05:15:14.623Z,20.69
2023-05-01T05:17:42.908Z,20.93
2023-05-01T05:20:11.918Z,21.19
2023-05-01T05:22:39.885Z,21.50
2023-05-01T05:25:22.394Z,21.84
2023-05-01T05:27:50.900Z,22.24
2023-05-01T05:30:19.045Z,22.63
2023-05-01T05:32:48.374Z,22.92
2023-05-01T05:35:17.640Z,23.04
2023-05-01T05:37:46.418Z,23.25
2023-05-01T05:40:15.482Z,23.52
2023-05-01T05:42:57.630Z,23.88
2023-05-01T05:45:27.467Z,24.11
2023-05-01T05:47:56.170Z,24.16
2023-05-01T05:50:25.623Z,24.05
2023-05-01T05:52:53.928Z,23.87
2023-05-01T05:55:22.603Z,23.86
2023-05-01T05:58:01.946Z,23.99
2023-05-01T06:00:30.248Z,24.30
2023-05-01T06:03:02.945Z,24.34
2023-05-01T06:05:32.777Z,24.40
2023-05-01T06:08:01.078Z,24.57
2023-05-01T06:13:36.225Z,24.68
2023-05-01T06:16:04.698Z,24.60
2023-05-01T06:18:33.092Z,24.76
2023-05-01T06:21:01.564Z,25.10
2023-05-01T06:23:29.766Z,25.13
2023-05-01T06:26:18.390Z,25.16
2023-05-01T06:28:46.472Z,25.05
2023-05-01T06:31:14.916Z,25.13
2023-05-01T06:33:48.026Z,25.21
2023-05-01T06:36:23.488Z,25.38
2023-05-01T06:38:51.756Z,25.21
2023-05-01T06:41:22.681Z,24.47
2023-05-01T06:43:50.758Z,24.27
2023-05-01T06:46:18.913Z,24.09
2023-05-01T06:48:49.152Z,23.71
2023-05-01T06:51:17.726Z,23.41
2023-05-01T06:54:06.034Z,23.47
2023-05-01T06:56:34.249Z,23.66
2023-05-01T06:59:02.051Z,23.37
2023-05-01T07:01:32.698Z,23.29
2023-05-01T07:04:02.252Z,23.40
2023-05-01T07:06:32.363Z,23.06
2023-05-01T07:09:00.888Z,22.94
2023-05-01T07:11:29.548Z,22.62
2023-05-01T07:13:57.436Z,22.34
2023-05-01T07:17:15.956Z,22.10
2023-05-01T07:19:44.339Z,22.21
2023-05-01T07:22:12.863Z,22.16
2023-05-01T07:24:41.404Z,22.15
2023-05-01T07:27:10.507Z,22.15
2023-05-01T07:29:38.491Z,21.89
2023-05-01T07:32:07.825Z,21.66
2023-05-01T07:34:35.976Z,21.21
2023-05-01T07:37:05.645Z,20.97
2023-05-01T07:39:33.714Z,20.91
2023-05-01T07:42:01.893Z,20.80
2023-05-01T07:44:30.364Z,20.48
2023-05-01T07:47:04.682Z,20.59
2023-05-01T07:49:37.468Z,20.93
2023-05-01T07:52:08.091Z,20.77
2023-05-01T07:54:36.385Z,20.54
2023-05-01T07:57:07.324Z,20.23
2023-05-01T07:59:35.595Z,20.25
2023-05-01T08:02:03.951Z,20.50
2023-05-01T08:04:32.165Z,20.70
2023-05-01T08:07:00.288Z,20.47
2023-05-01T08:09:28.375Z,20.40
2023-05-01T08:11:56.455Z,20.65
2023-05-01T08:18:33.359Z,20.80
2023-05-01T08:21:01.427Z,20.76
2023-05-01T08:23:29.701Z,20.91
2023-05-01T08:25:59.305Z,21.05
2023-05-01T08:28:30.325Z,21.00
2023-05-01T08:30:58.426Z,20.94
2023-05-01T08:33:26.799Z,20.62
2023-05-01T08:35:54.967Z,20.77
2023-05-01T08:38:23.142Z,20.93
2023-05-01T08:40:53.921Z,20.88
2023-05-01T08:43:23.073Z,20.66
2023-05-01T08:45:52.267Z,20.45
2023-05-01T08:48:21.155Z,20.13
2023-05-01T08:50:49.232Z,19.70
2023-05-01T08:53:18.397Z,19.44
2023-05-01T08:55:49.161Z,19.48
2023-05-01T08:58:17.841Z,19.51
2023-05-01T09:00:47.442Z,19.59
2023-05-01T09:03:15.851Z,19.53
2023-05-01T09:05:46.047Z,19.72
2023-05-01T09:08:15.339Z,19.89
2023-05-01T09:10:46.897Z,19.91
2023-05-01T09:13:15.683Z,19.95
2023-05-01T09:15:44.667Z,20.14
2023-05-01T09:18:13.321Z,20.23
2023-05-01T09:20:41.939Z,20.27
2023-05-01T09:23:10.222Z,20.40
2023-05-01T09:25:38.809Z,20.55
2023-05-01T09:28:07.801Z,20.67
2023-05-01T09:30:37.397Z,20.63
2023-05-01T09:33:08.990Z,20.67
2023-05-01T09:35:55.386Z,20.90
2023-05-01T09:38:24.817Z,21.14
2023-05-01T09:41:04.716Z,21.24
2023-05-01T09:43:32.668Z,21.47
2023-05-01T09:46:25.761Z,21.77
2023-05-01T09:48:57.408Z,22.05
2023-05-01T09:51:46.159Z,22.12
2023-05-01T09:54:21.058Z,22.06
2023-05-01T09:56:49.269Z,22.11
2023-05-01T09:59:20.366Z,22.13
2023-05-01T10:01:51.022Z,22.20
2023-05-01T10:04:32.707Z,22.20
2023-05-01T10:07:14.913Z,22.28
2023-05-01T10:09:43.083Z,22.36
2023-05-01T10:12:25.802Z,22.56
2023-05-01T10:14:54.726Z,22.78
2023-05-01T10:17:22.958Z,22.93
2023-05-01T10:19:52.002Z,23.13
2023-05-01T10:23:11.255Z,23.36
2023-05-01T10:25:39.396Z,23.21
2023-05-01T10:28:07.917Z,23.11
2023-05-01T10:30:39.052Z,23.07
2023-05-01T10:33:07.190Z,23.00
2023-05-01T10:35:38.536Z,23.08
2023-05-01T10:38:09.898Z,23.27
2023-05-01T10:40:43.712Z,23.34
2023-05-01T10:43:22.198Z,23.25
2023-05-01T10:45:50.322Z,23.17
2023-05-01T10:48:56.745Z,23.15
2023-05-01T10:51:29.221Z,23.18
2023-05-01T10:54:23.606Z,23.18
2023-05-01T10:56:51.815Z,23.17
2023-05-01T10:59:21.805Z,23.22
2023-05-01T11:01:53.278Z,23.27
2023-05-01T11:04:27.678Z,23.29
2023-05-01T11:07:02.235Z,23.33
2023-05-01T11:09:55.772Z,23.24
2023-05-01T11:12:46.536Z,22.93
2023-05-01T11:15:33.372Z,22.68
2023-05-01T11:18:06.916Z,22.50
2023-05-01T11:20:38.150Z,22.37
2023-05-01T11:23:06.581Z,22.30
2023-05-01T11:25:34.672Z,22.37
2023-05-01T11:28:04.579Z,22.50
2023-05-01T11:30:39.406Z,22.55
2023-05-01T11:33:10.142Z,22.44
2023-05-01T11:35:39.111Z,22.37
2023-05-01T11:38:07.202Z,22.37
2023-05-01T11:40:36.009Z,22.50
2023-05-01T11:43:07.299Z,22.57
2023-05-01T11:45:37.202Z,22.66
2023-05-01T11:48:14.760Z,22.72
2023-05-01T11:51:13.922Z,22.73
2023-05-01T11:53:42.218Z,22.76
2023-05-01T11:56:26.494Z,22.74
2023-05-01T11:58:57.914Z,22.54
2023-05-01T12:01:40.532Z,22.32
2023-05-01T12:04:08.918Z,22.27
2023-05-01T12:06:41.235Z,22.01
2023-05-01T12:09:24.172Z,22.00
2023-05-01T12:11:53.251Z,22.13
2023-05-01T12:14:24.735Z,22.27
2023-05-01T12:16:53.791Z,22.30
2023-05-01T12:20:42.529Z,22.46
2023-05-01T12:23:12.853Z,22.60
2023-05-01T12:25:43.402Z,22.64
2023-05-01T12:28:20.818Z,22.77
2023-05-01T12:30:50.641Z,22.92
2023-05-01T12:37:33.805Z,22.60
2023-05-01T12:40:02.558Z,22.51
2023-05-01T12:42:30.872Z,22.38
2023-05-01T12:45:26.124Z,22.21
2023-05-01T12:47:54.675Z,22.14
2023-05-01T12:50:23.150Z,22.24
2023-05-01T12:52:51.529Z,22.27
2023-05-01T12:55:19.642Z,22.20
2023-05-01T12:57:55.028Z,22.21
2023-05-01T13:00:24.311Z,22.20
2023-05-01T13:02:52.424Z,22.27
2023-05-01T13:05:21.690Z,22.29
2023-05-01T13:07:50.072Z,22.34
2023-05-01T13:10:30.597Z,22.40
2023-05-01T13:12:59.216Z,22.42
2023-05-01T13:15:28.188Z,22.44
2023-05-01T13:18:05.798Z,22.50
2023-05-01T13:20:34.690Z,22.48
2023-05-01T13:23:16.900Z,22.52
2023-05-01T13:25:46.910Z,22.58
2023-05-01T13:28:22.217Z,22.45
2023-05-01T13:30:51.140Z,22.41
2023-05-01T13:33:19.526Z,22.39
2023-05-01T13:35:48.617Z,22.35
2023-05-01T13:38:16.582Z,22.38
2023-05-01T13:40:44.650Z,22.27
2023-05-01T13:43:16.451Z,22.29
2023-05-01T13:45:44.898Z,22.09
2023-05-01T13:48:33.260Z,21.95
2023-05-01T13:51:01.521Z,21.94
2023-05-01T13:53:31.146Z,21.93
2023-05-01T13:55:59.739Z,21.84
2023-05-01T13:58:32.070Z,21.80
2023-05-01T14:01:00.586Z,21.79
2023-05-01T14:03:38.539Z,21.74
2023-05-01T14:06:22.420Z,21.75
2023-05-01T14:08:51.285Z,21.69
2023-05-01T14:11:20.481Z,21.62
2023-05-01T14:13:50.794Z,21.54
2023-05-01T14:16:26.579Z,21.46
2023-05-01T14:18:57.773Z,21.40
2023-05-01T14:21:28.940Z,21.14
2023-05-01T14:23:57.340Z,21.12
2023-05-01T14:26:25.915Z,21.13
2023-05-01T14:33:04.851Z,20.86
2023-05-01T14:35:33.125Z,20.86
2023-05-01T14:38:17.170Z,20.92
2023-05-01T14:40:45.759Z,20.86
2023-05-01T14:43:20.985Z,20.72
2023-05-01T14:45:53.009Z,20.43
2023-05-01T14:48:26.452Z,20.22
2023-05-01T14:51:00.376Z,20.12
2023-05-01T14:53:32.429Z,20.03
2023-05-01T14:56:00.852Z,20.01
2023-05-01T14:58:30.723Z,20.06
2023-05-01T15:00:58.727Z,19.98
2023-05-01T15:03:27.835Z,19.97
2023-05-01T15:05:56.899Z,20.03
2023-05-01T15:08:25.626Z,20.06
2023-05-01T15:10:53.799Z,20.03
2023-05-01T15:13:22.937Z,20.04
2023-05-01T15:15:51.762Z,20.05
2023-05-01T15:18:23.791Z,19.94
2023-05-01T15:20:52.482Z,19.86
2023-05-01T15:23:22.085Z,19.82
2023-05-01T15:25:52.326Z,19.65
2023-05-01T15:28:20.852Z,19.61
2023-05-01T15:30:49.166Z,19.67
2023-05-01T15:33:19.294Z,19.72
2023-05-01T15:36:16.124Z,19.75
2023-05-01T15:38:44.517Z,19.75
2023-05-01T15:41:13.299Z,19.68
2023-05-01T15:43:41.578Z,19.53
2023-05-01T15:46:09.993Z,19.41
2023-05-01T15:48:39.355Z,19.33
2023-05-01T15:51:07.611Z,19.36
2023-05-01T15:53:36.305Z,19.41
2023-05-01T15:56:05.104Z,19.40
2023-05-01T15:58:33.075Z,19.37
2023-05-01T16:01:01.355Z,19.35
2023-05-01T16:03:29.810Z,19.31
2023-05-01T16:05:59.416Z,19.14
2023-05-01T16:08:27.599Z,18.84
2023-05-01T16:10:58.339Z,18.77
2023-05-01T16:13:26.419Z,18.66
2023-05-01T16:15:54.603Z,18.60
2023-05-01T16:18:34.518Z,18.53
2023-05-01T16:21:02.796Z,18.43
2023-05-01T16:23:31.179Z,18.31
2023-05-01T16:25:59.168Z,18.23
2023-05-01T16:28:28.034Z,18.07
2023-05-01T16:30:58.301Z,17.89
2023-05-01T16:33:26.932Z,17.76
2023-05-01T16:35:55.721Z,17.66
2023-05-01T16:38:24.305Z,17.64
2023-05-01T16:40:52.785Z,17.54
2023-05-01T16:43:24.740Z,17.41
2023-05-01T16:45:55.817Z,17.28
2023-05-01T16:48:24.653Z,17.15
2023-05-01T16:50:53.594Z,17.03
2023-05-01T16:53:23.997Z,17.01
2023-05-01T16:55:53.699Z,16.95
2023-05-01T16:58:22.112Z,16.91
2023-05-01T17:00:50.354Z,16.88
2023-05-01T17:03:18.782Z,16.83
2023-05-01T17:05:47.223Z,16.73
2023-05-01T17:08:15.398Z,16.63
2023-05-01T17:10:45.631Z,16.60
2023-05-01T17:13:42.277Z,16.59
2023-05-01T17:16:11.098Z,16.54
2023-05-01T17:18:41.663Z,16.43
2023-05-01T17:21:10.077Z,16.38
2023-05-01T17:23:38.212Z,16.34
2023-05-01T17:26:07.160Z,16.27
2023-05-01T17:28:35.828Z,16.24
2023-05-01T17:31:04.164Z,16.14
2023-05-01T17:33:32.897Z,16.17
2023-05-01T17:36:01.538Z,16.16
2023-05-01T17:38:30.011Z,16.19
2023-05-01T17:40:58.431Z,16.24
2023-05-01T17:43:27.086Z,16.25
2023-05-01T17:45:55.379Z,16.24
2023-05-01T17:48:23.902Z,16.19
2023-05-01T17:50:55.642Z,16.16
2023-05-01T17:53:44.067Z,16.10
2023-05-01T17:56:12.521Z,16.10
2023-05-01T17:58:41.324Z,16.07
2023-05-01T18:01:12.150Z,16.09
2023-05-01T18:03:42.952Z,16.11
2023-05-01T18:06:12.027Z,16.06
2023-05-01T18:08:43.646Z,15.96
2023-05-01T18:11:12.003Z,15.93
2023-05-01T18:13:43.901Z,15.91
2023-05-01T18:16:12.181Z,15.92
2023-05-01T18:18:43.188Z,15.91
2023-05-01T18:21:11.759Z,15.95
2023-05-01T18:23:40.856Z,15.97
2023-05-01T18:26:10.251Z,15.98
2023-05-01T18:28:40.068Z,15.95
2023-05-01T18:31:08.697Z,15.92
2023-05-01T18:33:37.270Z,15.93
2023-05-01T18:36:05.840Z,15.91
2023-05-01T18:38:34.107Z,15.90
2023-05-01T18:41:02.982Z,15.91
2023-05-01T18:43:34.024Z,15.93
2023-05-01T18:46:02.444Z,15.96
2023-05-01T18:48:31.599Z,15.97
2023-05-01T18:51:08.501Z,15.98
2023-05-01T18:53:38.310Z,15.98
2023-05-01T18:56:06.768Z,15.97
2023-05-01T18:58:34.958Z,15.96
2023-05-01T19:01:03.019Z,15.96
2023-05-01T19:03:31.588Z,15.96
2023-05-01T19:05:59.593Z,15.94
2023-05-01T19:08:48.006Z,15.92
2023-05-01T19:11:16.203Z,15.93
2023-05-01T19:13:44.317Z,15.94
2023-05-01T19:16:13.210Z,15.96
2023-05-01T19:18:43.783Z,15.97
2023-05-01T19:21:12.964Z,15.96
2023-05-01T19:23:46.873Z,15.96
2023-05-01T19:26:15.559Z,15.96
2023-05-01T19:28:43.736Z,15.95
2023-05-01T19:31:13.140Z,15.96
2023-05-01T19:33:43.836Z,15.97
2023-05-01T19:36:12.250Z,15.96
2023-05-01T19:38:40.333Z,15.94
2023-05-01T19:41:09.101Z,15.92
2023-05-01T19:43:37.584Z,15.90
2023-05-01T19:46:05.520Z,15.87
2023-05-01T19:48:34.125Z,15.85
2023-05-01T19:51:03.332Z,15.82
2023-05-01T19:53:32.633Z,15.78
2023-05-01T19:56:01.014Z,15.75
2023-05-01T19:58:29.696Z,15.72
2023-05-01T20:01:03.656Z,15.68
2023-05-01T20:03:31.965Z,15.65
2023-05-01T20:06:20.321Z,15.61
2023-05-01T20:08:48.968Z,15.54
2023-05-01T20:11:17.386Z,15.47
2023-05-01T20:13:46.697Z,15.42
2023-05-01T20:16:15.004Z,15.37
2023-05-01T20:18:43.343Z,15.33
2023-05-01T20:21:12.344Z,15.29
2023-05-01T20:23:40.715Z,15.23
2023-05-01T20:26:08.992Z,15.18
2023-05-01T20:28:37.363Z,15.13
2023-05-01T20:31:07.546Z,15.08
2023-05-01T20:33:37.298Z,15.02
2023-05-01T20:36:06.394Z,14.95
2023-05-01T20:38:43.890Z,14.88
2023-05-01T20:41:12.487Z,14.82
2023-05-01T20:43:40.735Z,14.76
2023-05-01T20:46:09.029Z,14.69
2023-05-01T20:48:37.289Z,14.62
2023-05-01T20:51:05.462Z,14.53
2023-05-01T20:53:38.030Z,14.43
2023-05-01T20:56:06.314Z,14.35
2023-05-01T20:58:36.015Z,14.30
2023-05-01T21:01:05.938Z,14.23
2023-05-01T21:03:34.314Z,14.17
2023-05-01T21:06:02.529Z,14.12
2023-05-01T21:08:31.957Z,14.07
2023-05-01T21:11:02.219Z,14.05
2023-05-01T21:13:33.748Z,14.02
2023-05-01T21:16:03.561Z,14.00
2023-05-01T21:18:36.974Z,13.94
2023-05-01T21:21:05.348Z,13.87
2023-05-01T21:23:33.524Z,13.81
2023-05-01T21:26:01.547Z,13.77
2023-05-01T21:28:29.872Z,13.71
2023-05-01T21:30:58.020Z,13.60
2023-05-01T21:33:26.524Z,13.59
2023-05-01T21:35:54.806Z,13.55
2023-05-01T21:38:22.964Z,13.51
2023-05-01T21:40:51.551Z,13.46
2023-05-01T21:43:19.886Z,13.41
2023-05-01T21:45:48.615Z,13.37
2023-05-01T21:48:17.001Z,13.32
2023-05-01T21:50:48.870Z,13.26
2023-05-01T21:53:17.147Z,13.18
2023-05-01T21:55:47.337Z,13.11
2023-05-01T21:58:15.787Z,13.03
2023-05-01T22:00:48.318Z,12.95
2023-05-01T22:03:18.343Z,12.87
2023-05-01T22:05:47.594Z,12.78
2023-05-01T22:08:17.017Z,12.71
2023-05-01T22:10:46.117Z,12.69
2023-05-01T22:13:14.207Z,12.68
2023-05-01T22:15:42.932Z,12.66
2023-05-01T22:18:11.293Z,12.63
2023-05-01T22:20:39.505Z,12.60
2023-05-01T22:23:07.802Z,12.58
2023-05-01T22:25:35.866Z,12.56
2023-05-01T22:28:05.989Z,12.52
2023-05-01T22:30:59.559Z,12.48
2023-05-01T22:33:27.645Z,12.43
2023-05-01T22:35:55.696Z,12.38
2023-05-01T22:38:24.290Z,12.32
2023-05-01T22:40:52.837Z,12.26
2023-05-01T22:43:21.448Z,12.20
2023-05-01T22:45:50.080Z,12.14
2023-05-01T22:48:18.464Z,12.08
2023-05-01T22:50:46.494Z,12.02
2023-05-01T22:53:14.882Z,11.98
2023-05-01T22:55:43.337Z,11.94
2023-05-01T22:58:12.104Z,11.91
2023-05-01T23:00:40.095Z,11.89
2023-05-01T23:03:10.241Z,11.87
2023-05-01T23:05:39.821Z,11.84
2023-05-01T23:08:08.613Z,11.81
2023-05-01T23:10:42.927Z,11.81
2023-05-01T23:13:23.480Z,11.80
2023-05-01T23:15:52.640Z,11.78
2023-05-01T23:18:33.226Z,11.78
2023-05-01T23:21:01.705Z,11.76
2023-05-01T23:23:30.706Z,11.75
2023-05-01T23:25:58.812Z,11.78
2023-05-01T23:28:28.297Z,11.79
2023-05-01T23:30:57.034Z,11.80
2023-05-01T23:33:27.545Z,11.77
2023-05-01T23:35:55.927Z,11.80
2023-05-01T23:38:24.462Z,11.79
2023-05-01T23:40:52.755Z,11.77
2023-05-01T23:43:21.117Z,11.77
2023-05-01T23:45:49.192Z,11.79
2023-05-01T23:48:17.592Z,11.78
2023-05-01T23:50:45.840Z,11.76
2023-05-01T23:53:14.533Z,11.72
2023-05-01T23:55:43.612Z,11.67
2023-05-01T23:58:38.732Z,11.61
